sensor_id;sensor_type;location;lat;lon;timestamp;P1;P2;P0
77692;PMS5003;66984;47.404;18.836;2023-05-07T00:01:01;9.00;9.00;4.00
77692;PMS5003;66984;47.404;18.836;2023-05-07T00:02:05;12.00;12.00;5.00
77692;PMS5003;66984;47.404;18.836;2023-05-07T00:03:09;8.00;7.25;4.00
77692;PMS5003;66984;47.404;18.836;2023-05-07T00:04:13;7.50;7.50;4.00
77692;PMS5003;66984;47.404;18.836;2023-05-07T00:05:17;7.00;6.00;4.00
77692;PMS5003;66984;47.404;18.836;2023-05-07T00:06:20;8.00;7.00;4.00
77692;PMS5003;66984;47.404;18.836;2023-05-07T00:07:23;7.00;7.00;3.00
77692;PMS5003;66984;47.404;18.836;2023-05-07T00:08:26;7.00;7.00;4.00
77692;PMS5003;66984;47.404;18.836;2023-05-07T00:09:29;8.50;8.25;4.00
77692;PMS5003;66984;47.404;18.836;2023-05-07T00:10:32;9.25;7.00;3.00
77692;PMS5003;66984;47.404;18.836;2023-05-07T00:11:35;7.00;6.75;3.00
77692;PMS5003;66984;47.404;18.836;2023-05-07T00:12:38;8.00;7.75;3.25
77692;PMS5003;66984;47.404;18.836;2023-05-07T00:13:41;6.00;6.00;3.00
77692;PMS5003;66984;47.404;18.836;2023-05-07T00:14:43;7.00;7.00;3.00
77692;PMS5003;66984;47.404;18.836;2023-05-07T00:15:46;6.00;6.00;2.00
77692;PMS5003;66984;47.404;18.836;2023-05-07T00:16:49;6.25;6.25;4.00
77692;PMS5003;66984;47.404;18.836;2023-05-07T00:17:53;8.00;8.00;3.00
77692;PMS5003;66984;47.404;18.836;2023-05-07T00:18:56;8.00;8.00;4.00
77692;PMS5003;66984;47.404;18.836;2023-05-07T00:19:59;9.00;8.00;3.00
77692;PMS5003;66984;47.404;18.836;2023-05-07T00:21:02;8.00;7.00;3.00
77692;PMS5003;66984;47.404;18.836;2023-05-07T00:22:05;8.00;8.00;4.00
77692;PMS5003;66984;47.404;18.836;2023-05-07T00:23:08;9.00;9.00;4.00
77692;PMS5003;66984;47.404;18.836;2023-05-07T00:24:11;8.50;8.50;4.00
77692;PMS5003;66984;47.404;18.836;2023-05-07T00:25:14;9.00;8.00;5.00
77692;PMS5003;66984;47.404;18.836;2023-05-07T00:26:17;7.00;7.00;4.00
77692;PMS5003;66984;47.404;18.836;2023-05-07T00:27:20;8.25;8.00;3.00
77692;PMS5003;66984;47.404;18.836;2023-05-07T00:28:23;8.50;7.50;3.75
77692;PMS5003;66984;47.404;18.836;2023-05-07T00:29:26;7.25;7.00;3.00
77692;PMS5003;66984;47.404;18.836;2023-05-07T00:30:29;9.00;9.00;4.00
77692;PMS5003;66984;47.404;18.836;2023-05-07T00:31:31;8.75;8.75;4.00
77692;PMS5003;66984;47.404;18.836;2023-05-07T00:32:34;8.00;8.00;4.75
77692;PMS5003;66984;47.404;18.836;2023-05-07T00:33:38;8.00;8.00;4.00
77692;PMS5003;66984;47.404;18.836;2023-05-07T00:34:41;9.00;9.00;5.00
77692;PMS5003;66984;47.404;18.836;2023-05-07T00:35:45;9.00;9.00;4.00
77692;PMS5003;66984;47.404;18.836;2023-05-07T00:36:48;9.00;9.00;5.00
77692;PMS5003;66984;47.404;18.836;2023-05-07T00:37:51;9.00;8.00;5.00
77692;PMS5003;66984;47.404;18.836;2023-05-07T00:38:54;9.00;9.00;4.50
77692;PMS5003;66984;47.404;18.836;2023-05-07T00:39:58;10.00;10.00;4.00
77692;PMS5003;66984;47.404;18.836;2023-05-07T00:41:01;8.00;7.00;3.00
77692;PMS5003;66984;47.404;18.836;2023-05-07T00:42:04;7.50;7.00;4.00
77692;PMS5003;66984;47.404;18.836;2023-05-07T00:43:07;7.75;7.00;3.00
77692;PMS5003;66984;47.404;18.836;2023-05-07T00:44:11;7.75;7.75;3.00
77692;PMS5003;66984;47.404;18.836;2023-05-07T00:45:14;8.00;8.00;3.00
77692;PMS5003;66984;47.404;18.836;2023-05-07T00:46:19;9.00;9.00;4.00
77692;PMS5003;66984;47.404;18.836;2023-05-07T00:47:23;7.75;7.75;3.00
77692;PMS5003;66984;47.404;18.836;2023-05-07T00:48:27;8.25;8.25;3.50
77692;PMS5003;66984;47.404;18.836;2023-05-07T00:49:41;10.00;10.00;4.50
77692;PMS5003;66984;47.404;18.836;2023-05-07T00:50:45;8.00;8.00;3.00
77692;PMS5003;66984;47.404;18.836;2023-05-07T00:51:49;11.00;10.00;5.00
77692;PMS5003;66984;47.404;18.836;2023-05-07T00:52:52;9.75;8.75;5.00
77692;PMS5003;66984;47.404;18.836;2023-05-07T00:53:56;8.50;7.50;4.00
77692;PMS5003;66984;47.404;18.836;2023-05-07T00:55:03;9.00;8.00;4.00
77692;PMS5003;66984;47.404;18.836;2023-05-07T00:56:08;6.75;6.75;4.00
77692;PMS5003;66984;47.404;18.836;2023-05-07T00:57:12;8.00;8.00;3.00
77692;PMS5003;66984;47.404;18.836;2023-05-07T00:58:16;7.50;7.50;3.00
77692;PMS5003;66984;47.404;18.836;2023-05-07T00:59:19;6.25;6.25;2.75
77692;PMS5003;66984;47.404;18.836;2023-05-07T01:00:22;7.00;7.00;2.00
77692;PMS5003;66984;47.404;18.836;2023-05-07T01:01:25;8.75;8.00;3.00
77692;PMS5003;66984;47.404;18.836;2023-05-07T01:02:28;8.00;7.50;2.00
77692;PMS5003;66984;47.404;18.836;2023-05-07T01:03:32;7.75;7.75;3.00
77692;PMS5003;66984;47.404;18.836;2023-05-07T01:04:35;8.50;8.50;4.00
77692;PMS5003;66984;47.404;18.836;2023-05-07T01:05:39;6.50;6.00;3.00
77692;PMS5003;66984;47.404;18.836;2023-05-07T01:06:44;9.00;8.00;3.00
77692;PMS5003;66984;47.404;18.836;2023-05-07T01:07:48;9.00;8.00;3.00
77692;PMS5003;66984;47.404;18.836;2023-05-07T01:08:54;8.00;8.00;2.00
77692;PMS5003;66984;47.404;18.836;2023-05-07T01:09:59;6.00;6.00;4.00
77692;PMS5003;66984;47.404;18.836;2023-05-07T01:11:03;9.00;9.00;3.00
77692;PMS5003;66984;47.404;18.836;2023-05-07T01:12:06;7.00;7.00;3.00
77692;PMS5003;66984;47.404;18.836;2023-05-07T01:13:10;7.00;7.00;4.00
77692;PMS5003;66984;47.404;18.836;2023-05-07T01:14:14;8.25;7.00;3.00
77692;PMS5003;66984;47.404;18.836;2023-05-07T01:15:18;9.00;8.50;3.75
77692;PMS5003;66984;47.404;18.836;2023-05-07T01:16:21;7.00;7.00;3.25
77692;PMS5003;66984;47.404;18.836;2023-05-07T01:17:24;8.00;8.00;4.00
77692;PMS5003;66984;47.404;18.836;2023-05-07T01:18:27;8.00;7.75;3.00
77692;PMS5003;66984;47.404;18.836;2023-05-07T01:19:32;10.50;9.50;5.00
77692;PMS5003;66984;47.404;18.836;2023-05-07T01:20:35;10.50;10.00;5.00
77692;PMS5003;66984;47.404;18.836;2023-05-07T01:21:38;8.75;7.00;4.00
77692;PMS5003;66984;47.404;18.836;2023-05-07T01:22:41;7.00;6.00;3.00
77692;PMS5003;66984;47.404;18.836;2023-05-07T01:23:45;7.50;7.50;3.75
77692;PMS5003;66984;47.404;18.836;2023-05-07T01:24:49;10.00;8.00;3.00
77692;PMS5003;66984;47.404;18.836;2023-05-07T01:25:53;6.00;6.00;2.25
77692;PMS5003;66984;47.404;18.836;2023-05-07T01:26:56;8.50;8.00;3.00
77692;PMS5003;66984;47.404;18.836;2023-05-07T01:27:59;7.00;7.00;3.00
77692;PMS5003;66984;47.404;18.836;2023-05-07T01:29:03;7.00;7.00;3.00
77692;PMS5003;66984;47.404;18.836;2023-05-07T01:30:06;8.00;7.00;4.00
77692;PMS5003;66984;47.404;18.836;2023-05-07T01:31:10;9.00;8.00;5.00
77692;PMS5003;66984;47.404;18.836;2023-05-07T01:32:16;7.50;7.25;3.25
77692;PMS5003;66984;47.404;18.836;2023-05-07T01:33:23;10.50;8.00;4.00
77692;PMS5003;66984;47.404;18.836;2023-05-07T01:34:30;11.00;9.50;5.00
77692;PMS5003;66984;47.404;18.836;2023-05-07T01:35:38;11.00;9.00;5.00
77692;PMS5003;66984;47.404;18.836;2023-05-07T01:36:44;10.00;9.00;4.00
77692;PMS5003;66984;47.404;18.836;2023-05-07T01:37:48;10.50;9.00;4.00
77692;PMS5003;66984;47.404;18.836;2023-05-07T01:38:52;10.00;7.25;4.00
77692;PMS5003;66984;47.404;18.836;2023-05-07T01:39:55;6.00;6.00;4.00
77692;PMS5003;66984;47.404;18.836;2023-05-07T01:40:58;7.00;7.00;4.00
77692;PMS5003;66984;47.404;18.836;2023-05-07T01:42:02;8.50;8.25;4.00
77692;PMS5003;66984;47.404;18.836;2023-05-07T01:43:05;8.00;7.00;3.00
77692;PMS5003;66984;47.404;18.836;2023-05-07T01:44:09;7.75;6.50;3.00
77692;PMS5003;66984;47.404;18.836;2023-05-07T01:45:15;7.25;7.25;2.00
77692;PMS5003;66984;47.404;18.836;2023-05-07T01:46:17;8.00;8.00;3.00
77692;PMS5003;66984;47.404;18.836;2023-05-07T01:47:21;8.00;8.00;6.00
77692;PMS5003;66984;47.404;18.836;2023-05-07T01:48:24;8.75;8.00;5.00
77692;PMS5003;66984;47.404;18.836;2023-05-07T01:49:28;11.00;10.00;5.00
77692;PMS5003;66984;47.404;18.836;2023-05-07T01:50:31;10.00;9.00;4.00
77692;PMS5003;66984;47.404;18.836;2023-05-07T01:51:34;7.75;7.75;4.00
77692;PMS5003;66984;47.404;18.836;2023-05-07T01:52:38;8.00;8.00;2.50
77692;PMS5003;66984;47.404;18.836;2023-05-07T01:53:41;8.00;8.00;4.50
77692;PMS5003;66984;47.404;18.836;2023-05-07T01:54:44;9.00;8.00;4.00
77692;PMS5003;66984;47.404;18.836;2023-05-07T01:55:47;7.75;7.75;4.00
77692;PMS5003;66984;47.404;18.836;2023-05-07T01:56:49;10.00;9.25;4.00
77692;PMS5003;66984;47.404;18.836;2023-05-07T01:57:52;10.00;9.25;4.00
77692;PMS5003;66984;47.404;18.836;2023-05-07T01:58:55;8.25;8.25;4.00
77692;PMS5003;66984;47.404;18.836;2023-05-07T01:59:58;8.75;8.75;4.00
77692;PMS5003;66984;47.404;18.836;2023-05-07T02:01:01;6.25;6.25;4.00
77692;PMS5003;66984;47.404;18.836;2023-05-07T02:02:04;8.00;7.25;3.00
77692;PMS5003;66984;47.404;18.836;2023-05-07T02:03:07;8.00;7.00;3.00
77692;PMS5003;66984;47.404;18.836;2023-05-07T02:04:10;7.00;7.00;3.00
77692;PMS5003;66984;47.404;18.836;2023-05-07T02:05:13;6.75;6.50;3.00
77692;PMS5003;66984;47.404;18.836;2023-05-07T02:06:16;7.75;7.75;3.50
77692;PMS5003;66984;47.404;18.836;2023-05-07T02:07:19;6.00;6.00;2.00
77692;PMS5003;66984;47.404;18.836;2023-05-07T02:08:22;7.00;6.00;3.75
77692;PMS5003;66984;47.404;18.836;2023-05-07T02:09:24;6.00;6.00;3.00
77692;PMS5003;66984;47.404;18.836;2023-05-07T02:10:27;8.00;7.50;3.00
77692;PMS5003;66984;47.404;18.836;2023-05-07T02:11:30;8.25;8.00;3.00
77692;PMS5003;66984;47.404;18.836;2023-05-07T02:12:33;7.50;7.50;4.00
77692;PMS5003;66984;47.404;18.836;2023-05-07T02:13:36;9.00;8.00;4.00
77692;PMS5003;66984;47.404;18.836;2023-05-07T02:14:39;7.00;6.00;4.00
77692;PMS5003;66984;47.404;18.836;2023-05-07T02:15:42;9.00;7.00;4.00
77692;PMS5003;66984;47.404;18.836;2023-05-07T02:16:47;7.00;6.00;3.00
77692;PMS5003;66984;47.404;18.836;2023-05-07T02:19:22;9.00;9.00;4.00
77692;PMS5003;66984;47.404;18.836;2023-05-07T02:20:25;9.25;8.00;4.50
77692;PMS5003;66984;47.404;18.836;2023-05-07T02:21:28;10.00;9.00;4.00
77692;PMS5003;66984;47.404;18.836;2023-05-07T02:22:31;9.00;9.00;4.00
77692;PMS5003;66984;47.404;18.836;2023-05-07T02:23:34;9.50;9.50;4.75
77692;PMS5003;66984;47.404;18.836;2023-05-07T02:24:37;9.50;8.00;4.00
77692;PMS5003;66984;47.404;18.836;2023-05-07T02:25:40;9.00;8.25;4.25
77692;PMS5003;66984;47.404;18.836;2023-05-07T02:26:43;7.50;7.50;4.00
77692;PMS5003;66984;47.404;18.836;2023-05-07T02:27:45;8.75;8.75;4.50
77692;PMS5003;66984;47.404;18.836;2023-05-07T02:28:48;9.50;9.00;5.00
77692;PMS5003;66984;47.404;18.836;2023-05-07T02:29:51;13.00;9.00;5.00
77692;PMS5003;66984;47.404;18.836;2023-05-07T02:30:54;10.00;7.75;4.00
77692;PMS5003;66984;47.404;18.836;2023-05-07T02:31:57;7.00;7.00;5.00
77692;PMS5003;66984;47.404;18.836;2023-05-07T02:33:00;9.00;9.00;4.00
77692;PMS5003;66984;47.404;18.836;2023-05-07T02:34:03;9.00;8.00;3.00
77692;PMS5003;66984;47.404;18.836;2023-05-07T02:35:06;8.00;8.00;4.00
77692;PMS5003;66984;47.404;18.836;2023-05-07T02:36:09;9.00;9.00;5.00
77692;PMS5003;66984;47.404;18.836;2023-05-07T02:37:13;8.00;7.25;5.00
77692;PMS5003;66984;47.404;18.836;2023-05-07T02:38:16;9.00;9.00;4.00
77692;PMS5003;66984;47.404;18.836;2023-05-07T02:39:19;9.00;7.00;4.00
77692;PMS5003;66984;47.404;18.836;2023-05-07T02:40:23;8.00;7.00;4.00
77692;PMS5003;66984;47.404;18.836;2023-05-07T02:41:26;7.50;7.50;3.00
77692;PMS5003;66984;47.404;18.836;2023-05-07T02:42:30;8.25;8.25;3.00
77692;PMS5003;66984;47.404;18.836;2023-05-07T02:43:33;9.00;8.00;4.00
77692;PMS5003;66984;47.404;18.836;2023-05-07T02:44:36;9.00;8.75;4.00
77692;PMS5003;66984;47.404;18.836;2023-05-07T02:45:39;8.25;8.00;5.00
77692;PMS5003;66984;47.404;18.836;2023-05-07T02:46:42;11.00;10.00;5.00
77692;PMS5003;66984;47.404;18.836;2023-05-07T02:47:45;9.25;9.00;5.00
77692;PMS5003;66984;47.404;18.836;2023-05-07T02:48:48;9.00;9.00;4.00
77692;PMS5003;66984;47.404;18.836;2023-05-07T02:49:51;11.00;10.00;4.00
77692;PMS5003;66984;47.404;18.836;2023-05-07T02:50:55;9.75;9.00;5.00
77692;PMS5003;66984;47.404;18.836;2023-05-07T02:51:58;8.50;8.00;4.00
77692;PMS5003;66984;47.404;18.836;2023-05-07T02:53:01;9.00;9.00;5.00
77692;PMS5003;66984;47.404;18.836;2023-05-07T02:54:03;11.00;10.00;4.75
77692;PMS5003;66984;47.404;18.836;2023-05-07T02:55:07;13.75;11.75;5.00
77692;PMS5003;66984;47.404;18.836;2023-05-07T02:56:10;12.75;9.75;5.00
77692;PMS5003;66984;47.404;18.836;2023-05-07T02:57:13;11.25;9.75;4.00
77692;PMS5003;66984;47.404;18.836;2023-05-07T02:58:16;13.00;10.00;5.50
77692;PMS5003;66984;47.404;18.836;2023-05-07T02:59:19;13.00;10.25;5.00
77692;PMS5003;66984;47.404;18.836;2023-05-07T03:00:22;15.25;12.50;6.00
77692;PMS5003;66984;47.404;18.836;2023-05-07T03:01:25;16.00;13.00;5.00
77692;PMS5003;66984;47.404;18.836;2023-05-07T03:02:27;15.00;12.00;4.75
77692;PMS5003;66984;47.404;18.836;2023-05-07T03:03:31;14.00;13.00;5.25
77692;PMS5003;66984;47.404;18.836;2023-05-07T03:04:33;14.00;13.00;5.00
77692;PMS5003;66984;47.404;18.836;2023-05-07T03:05:36;15.00;14.00;5.00
77692;PMS5003;66984;47.404;18.836;2023-05-07T03:06:39;15.00;15.00;6.25
77692;PMS5003;66984;47.404;18.836;2023-05-07T03:07:44;15.00;15.00;6.00
77692;PMS5003;66984;47.404;18.836;2023-05-07T03:08:48;16.00;14.75;6.50
77692;PMS5003;66984;47.404;18.836;2023-05-07T03:09:51;17.50;17.50;8.00
77692;PMS5003;66984;47.404;18.836;2023-05-07T03:10:54;16.00;16.00;8.00
77692;PMS5003;66984;47.404;18.836;2023-05-07T03:11:57;16.00;15.00;6.00
77692;PMS5003;66984;47.404;18.836;2023-05-07T03:13:00;14.50;14.00;5.00
77692;PMS5003;66984;47.404;18.836;2023-05-07T03:14:03;15.75;15.00;6.25
77692;PMS5003;66984;47.404;18.836;2023-05-07T03:15:06;16.00;16.00;6.00
77692;PMS5003;66984;47.404;18.836;2023-05-07T03:16:10;16.75;15.00;7.00
77692;PMS5003;66984;47.404;18.836;2023-05-07T03:17:13;17.00;14.00;6.00
77692;PMS5003;66984;47.404;18.836;2023-05-07T03:18:16;16.00;16.00;6.00
77692;PMS5003;66984;47.404;18.836;2023-05-07T03:19:19;16.00;16.00;6.00
77692;PMS5003;66984;47.404;18.836;2023-05-07T03:20:22;17.00;15.00;6.00
77692;PMS5003;66984;47.404;18.836;2023-05-07T03:21:25;15.00;14.50;6.25
77692;PMS5003;66984;47.404;18.836;2023-05-07T03:22:28;16.00;16.00;7.00
77692;PMS5003;66984;47.404;18.836;2023-05-07T03:23:31;16.00;15.00;6.00
77692;PMS5003;66984;47.404;18.836;2023-05-07T03:24:34;16.75;15.75;6.75
77692;PMS5003;66984;47.404;18.836;2023-05-07T03:25:37;16.25;16.25;6.00
77692;PMS5003;66984;47.404;18.836;2023-05-07T03:26:40;16.00;15.00;6.50
77692;PMS5003;66984;47.404;18.836;2023-05-07T03:27:43;17.75;17.00;7.00
77692;PMS5003;66984;47.404;18.836;2023-05-07T03:28:46;16.00;15.00;6.00
77692;PMS5003;66984;47.404;18.836;2023-05-07T03:29:49;17.00;15.00;7.75
77692;PMS5003;66984;47.404;18.836;2023-05-07T03:30:51;18.00;16.00;7.75
77692;PMS5003;66984;47.404;18.836;2023-05-07T03:31:54;17.00;16.50;7.00
77692;PMS5003;66984;47.404;18.836;2023-05-07T03:32:57;18.75;17.50;7.00
77692;PMS5003;66984;47.404;18.836;2023-05-07T03:34:00;18.50;16.75;6.00
77692;PMS5003;66984;47.404;18.836;2023-05-07T03:35:03;17.00;16.75;7.00
77692;PMS5003;66984;47.404;18.836;2023-05-07T03:36:07;18.00;18.00;7.00
77692;PMS5003;66984;47.404;18.836;2023-05-07T03:37:10;18.00;18.00;7.25
77692;PMS5003;66984;47.404;18.836;2023-05-07T03:38:13;17.25;16.25;6.25
77692;PMS5003;66984;47.404;18.836;2023-05-07T03:39:15;17.00;16.00;7.00
77692;PMS5003;66984;47.404;18.836;2023-05-07T03:40:18;16.25;15.25;7.00
77692;PMS5003;66984;47.404;18.836;2023-05-07T03:41:21;16.75;15.75;6.75
77692;PMS5003;66984;47.404;18.836;2023-05-07T03:42:24;18.00;15.00;7.00
77692;PMS5003;66984;47.404;18.836;2023-05-07T03:43:27;16.75;15.25;7.00
77692;PMS5003;66984;47.404;18.836;2023-05-07T03:44:30;19.00;18.50;8.00
77692;PMS5003;66984;47.404;18.836;2023-05-07T03:45:33;18.75;18.25;8.50
77692;PMS5003;66984;47.404;18.836;2023-05-07T03:46:35;17.50;16.00;8.00
77692;PMS5003;66984;47.404;18.836;2023-05-07T03:47:38;21.00;18.00;9.00
77692;PMS5003;66984;47.404;18.836;2023-05-07T03:48:41;20.00;18.25;8.00
77692;PMS5003;66984;47.404;18.836;2023-05-07T03:49:44;19.25;17.00;8.00
77692;PMS5003;66984;47.404;18.836;2023-05-07T03:50:47;18.00;17.00;7.25
77692;PMS5003;66984;47.404;18.836;2023-05-07T03:51:50;15.00;15.00;6.00
77692;PMS5003;66984;47.404;18.836;2023-05-07T03:52:53;16.00;16.00;7.00
77692;PMS5003;66984;47.404;18.836;2023-05-07T03:53:56;17.00;17.00;8.00
77692;PMS5003;66984;47.404;18.836;2023-05-07T03:55:00;17.00;17.00;8.00
77692;PMS5003;66984;47.404;18.836;2023-05-07T03:56:03;17.50;17.00;8.00
77692;PMS5003;66984;47.404;18.836;2023-05-07T03:57:06;17.50;17.00;7.00
77692;PMS5003;66984;47.404;18.836;2023-05-07T03:58:09;17.25;17.00;7.00
77692;PMS5003;66984;47.404;18.836;2023-05-07T03:59:12;16.00;16.00;6.00
77692;PMS5003;66984;47.404;18.836;2023-05-07T04:00:15;17.00;15.00;6.00
77692;PMS5003;66984;47.404;18.836;2023-05-07T04:01:18;17.50;15.00;8.00
77692;PMS5003;66984;47.404;18.836;2023-05-07T04:02:21;17.00;15.00;7.00
77692;PMS5003;66984;47.404;18.836;2023-05-07T04:03:24;18.00;16.00;6.75
77692;PMS5003;66984;47.404;18.836;2023-05-07T04:04:27;17.25;15.00;7.00
77692;PMS5003;66984;47.404;18.836;2023-05-07T04:05:35;16.75;16.00;7.75
77692;PMS5003;66984;47.404;18.836;2023-05-07T04:06:38;17.00;17.00;6.50
77692;PMS5003;66984;47.404;18.836;2023-05-07T04:07:41;16.00;16.00;7.00
77692;PMS5003;66984;47.404;18.836;2023-05-07T04:08:44;15.00;15.00;7.00
77692;PMS5003;66984;47.404;18.836;2023-05-07T04:09:47;17.00;15.00;7.00
77692;PMS5003;66984;47.404;18.836;2023-05-07T04:10:54;17.00;15.00;6.00
77692;PMS5003;66984;47.404;18.836;2023-05-07T04:12:01;17.00;17.00;7.00
77692;PMS5003;66984;47.404;18.836;2023-05-07T04:13:04;18.00;18.00;8.00
77692;PMS5003;66984;47.404;18.836;2023-05-07T04:14:07;17.50;17.50;7.00
77692;PMS5003;66984;47.404;18.836;2023-05-07T04:15:10;18.50;18.00;7.00
77692;PMS5003;66984;47.404;18.836;2023-05-07T04:16:13;17.25;17.25;7.00
77692;PMS5003;66984;47.404;18.836;2023-05-07T04:17:16;16.50;16.00;8.00
77692;PMS5003;66984;47.404;18.836;2023-05-07T04:18:19;17.25;16.75;7.25
77692;PMS5003;66984;47.404;18.836;2023-05-07T04:19:22;18.50;16.25;8.00
77692;PMS5003;66984;47.404;18.836;2023-05-07T04:20:25;17.25;15.25;6.75
77692;PMS5003;66984;47.404;18.836;2023-05-07T04:21:28;18.00;17.00;8.75
77692;PMS5003;66984;47.404;18.836;2023-05-07T04:22:31;18.00;17.75;8.50
77692;PMS5003;66984;47.404;18.836;2023-05-07T04:23:34;18.00;17.00;7.00
77692;PMS5003;66984;47.404;18.836;2023-05-07T04:24:36;19.00;18.50;9.00
77692;PMS5003;66984;47.404;18.836;2023-05-07T04:25:39;17.00;17.00;7.50
77692;PMS5003;66984;47.404;18.836;2023-05-07T04:26:42;18.00;17.00;8.00
77692;PMS5003;66984;47.404;18.836;2023-05-07T04:27:45;19.00;18.50;8.00
77692;PMS5003;66984;47.404;18.836;2023-05-07T04:28:48;18.50;18.00;7.25
77692;PMS5003;66984;47.404;18.836;2023-05-07T04:29:51;17.00;17.00;8.00
77692;PMS5003;66984;47.404;18.836;2023-05-07T04:30:54;19.00;18.00;7.25
77692;PMS5003;66984;47.404;18.836;2023-05-07T04:31:57;17.00;17.00;6.00
77692;PMS5003;66984;47.404;18.836;2023-05-07T04:33:01;16.75;15.75;6.00
77692;PMS5003;66984;47.404;18.836;2023-05-07T04:34:04;17.00;15.00;6.00
77692;PMS5003;66984;47.404;18.836;2023-05-07T04:35:07;18.25;16.00;6.00
77692;PMS5003;66984;47.404;18.836;2023-05-07T04:36:10;19.50;17.00;8.00
77692;PMS5003;66984;47.404;18.836;2023-05-07T04:37:13;19.50;19.50;9.50
77692;PMS5003;66984;47.404;18.836;2023-05-07T04:38:16;21.00;21.00;10.00
77692;PMS5003;66984;47.404;18.836;2023-05-07T04:39:20;20.25;19.50;9.00
77692;PMS5003;66984;47.404;18.836;2023-05-07T04:40:23;19.00;19.00;7.75
77692;PMS5003;66984;47.404;18.836;2023-05-07T04:41:26;20.25;20.25;10.00
77692;PMS5003;66984;47.404;18.836;2023-05-07T04:42:30;22.00;21.00;10.00
77692;PMS5003;66984;47.404;18.836;2023-05-07T04:43:33;19.25;19.25;9.00
77692;PMS5003;66984;47.404;18.836;2023-05-07T04:44:36;20.50;20.50;9.75
77692;PMS5003;66984;47.404;18.836;2023-05-07T04:45:39;20.50;20.25;9.00
77692;PMS5003;66984;47.404;18.836;2023-05-07T04:46:43;21.00;20.50;9.00
77692;PMS5003;66984;47.404;18.836;2023-05-07T04:47:46;19.00;19.00;7.00
77692;PMS5003;66984;47.404;18.836;2023-05-07T04:48:50;20.25;20.00;9.00
77692;PMS5003;66984;47.404;18.836;2023-05-07T04:49:53;18.50;18.00;8.50
77692;PMS5003;66984;47.404;18.836;2023-05-07T04:50:56;18.25;18.00;9.50
77692;PMS5003;66984;47.404;18.836;2023-05-07T04:51:59;18.00;17.00;9.00
77692;PMS5003;66984;47.404;18.836;2023-05-07T04:53:02;17.00;16.00;8.00
77692;PMS5003;66984;47.404;18.836;2023-05-07T04:54:05;17.75;17.50;8.50
77692;PMS5003;66984;47.404;18.836;2023-05-07T04:55:08;20.00;19.00;9.00
77692;PMS5003;66984;47.404;18.836;2023-05-07T04:56:11;19.00;18.00;8.00
77692;PMS5003;66984;47.404;18.836;2023-05-07T04:57:14;20.00;20.00;8.00
77692;PMS5003;66984;47.404;18.836;2023-05-07T04:58:17;19.00;18.00;8.00
77692;PMS5003;66984;47.404;18.836;2023-05-07T04:59:20;18.75;18.25;8.00
77692;PMS5003;66984;47.404;18.836;2023-05-07T05:00:23;17.00;16.00;6.50
77692;PMS5003;66984;47.404;18.836;2023-05-07T05:01:26;17.00;17.00;7.00
77692;PMS5003;66984;47.404;18.836;2023-05-07T05:02:29;17.75;15.75;8.00
77692;PMS5003;66984;47.404;18.836;2023-05-07T05:03:32;19.00;17.00;7.50
77692;PMS5003;66984;47.404;18.836;2023-05-07T05:04:35;19.00;19.00;9.00
77692;PMS5003;66984;47.404;18.836;2023-05-07T05:05:37;20.00;20.00;8.00
77692;PMS5003;66984;47.404;18.836;2023-05-07T05:06:40;19.25;19.00;8.00
77692;PMS5003;66984;47.404;18.836;2023-05-07T05:07:43;20.75;20.75;11.00
77692;PMS5003;66984;47.404;18.836;2023-05-07T05:08:46;20.00;20.00;9.00
77692;PMS5003;66984;47.404;18.836;2023-05-07T05:09:49;21.00;21.00;9.00
77692;PMS5003;66984;47.404;18.836;2023-05-07T05:10:52;21.00;21.00;10.00
77692;PMS5003;66984;47.404;18.836;2023-05-07T05:11:55;21.00;21.00;11.00
77692;PMS5003;66984;47.404;18.836;2023-05-07T05:12:58;22.00;21.25;10.00
77692;PMS5003;66984;47.404;18.836;2023-05-07T05:14:01;23.50;22.00;9.00
77692;PMS5003;66984;47.404;18.836;2023-05-07T05:15:04;22.75;22.25;11.50
77692;PMS5003;66984;47.404;18.836;2023-05-07T05:16:08;22.25;22.25;11.50
77692;PMS5003;66984;47.404;18.836;2023-05-07T05:17:11;21.50;21.00;11.50
77692;PMS5003;66984;47.404;18.836;2023-05-07T05:18:14;22.00;22.00;12.00
77692;PMS5003;66984;47.404;18.836;2023-05-07T05:19:17;23.25;21.75;12.00
77692;PMS5003;66984;47.404;18.836;2023-05-07T05:20:20;23.00;22.00;12.00
77692;PMS5003;66984;47.404;18.836;2023-05-07T05:21:23;20.00;20.00;11.00
77692;PMS5003;66984;47.404;18.836;2023-05-07T05:22:26;20.25;19.00;9.25
77692;PMS5003;66984;47.404;18.836;2023-05-07T05:23:32;22.00;20.50;9.25
77692;PMS5003;66984;47.404;18.836;2023-05-07T05:24:35;22.00;20.50;9.00
77692;PMS5003;66984;47.404;18.836;2023-05-07T05:25:37;23.00;21.00;9.00
77692;PMS5003;66984;47.404;18.836;2023-05-07T05:26:41;20.00;18.00;7.75
77692;PMS5003;66984;47.404;18.836;2023-05-07T05:27:44;21.00;19.75;9.75
77692;PMS5003;66984;47.404;18.836;2023-05-07T05:28:47;21.00;21.00;9.00
77692;PMS5003;66984;47.404;18.836;2023-05-07T05:29:50;20.75;20.00;9.00
77692;PMS5003;66984;47.404;18.836;2023-05-07T05:30:53;23.00;19.00;9.00
77692;PMS5003;66984;47.404;18.836;2023-05-07T05:31:56;19.25;19.00;7.25
77692;PMS5003;66984;47.404;18.836;2023-05-07T05:32:59;19.00;16.00;8.00
77692;PMS5003;66984;47.404;18.836;2023-05-07T05:34:02;18.50;17.75;8.75
77692;PMS5003;66984;47.404;18.836;2023-05-07T05:35:06;18.50;17.25;9.00
77692;PMS5003;66984;47.404;18.836;2023-05-07T05:36:09;20.00;17.00;7.75
77692;PMS5003;66984;47.404;18.836;2023-05-07T05:37:13;21.00;19.00;10.00
77692;PMS5003;66984;47.404;18.836;2023-05-07T05:38:16;20.00;19.50;9.50
77692;PMS5003;66984;47.404;18.836;2023-05-07T05:39:18;22.00;21.00;10.00
77692;PMS5003;66984;47.404;18.836;2023-05-07T05:40:21;21.00;19.75;10.00
77692;PMS5003;66984;47.404;18.836;2023-05-07T05:41:24;19.00;17.00;8.00
77692;PMS5003;66984;47.404;18.836;2023-05-07T05:42:27;19.00;19.00;9.25
77692;PMS5003;66984;47.404;18.836;2023-05-07T05:43:30;21.50;19.00;8.50
77692;PMS5003;66984;47.404;18.836;2023-05-07T05:44:33;23.75;21.25;10.25
77692;PMS5003;66984;47.404;18.836;2023-05-07T05:45:36;22.00;22.00;10.00
77692;PMS5003;66984;47.404;18.836;2023-05-07T05:46:39;21.00;21.00;9.00
77692;PMS5003;66984;47.404;18.836;2023-05-07T05:47:42;20.25;20.00;9.25
77692;PMS5003;66984;47.404;18.836;2023-05-07T05:48:45;22.50;20.75;10.00
77692;PMS5003;66984;47.404;18.836;2023-05-07T05:49:48;21.75;19.00;8.75
77692;PMS5003;66984;47.404;18.836;2023-05-07T05:50:51;20.00;18.50;10.50
77692;PMS5003;66984;47.404;18.836;2023-05-07T05:51:54;20.00;20.00;8.00
77692;PMS5003;66984;47.404;18.836;2023-05-07T05:52:58;20.00;19.25;10.25
77692;PMS5003;66984;47.404;18.836;2023-05-07T05:54:01;21.00;19.75;9.00
77692;PMS5003;66984;47.404;18.836;2023-05-07T05:55:04;20.75;19.00;10.00
77692;PMS5003;66984;47.404;18.836;2023-05-07T05:56:07;19.50;18.50;8.00
77692;PMS5003;66984;47.404;18.836;2023-05-07T05:57:10;20.75;20.00;8.75
77692;PMS5003;66984;47.404;18.836;2023-05-07T05:58:13;24.50;24.00;8.75
77692;PMS5003;66984;47.404;18.836;2023-05-07T05:59:17;22.00;21.00;9.00
77692;PMS5003;66984;47.404;18.836;2023-05-07T06:00:20;21.00;19.00;7.00
77692;PMS5003;66984;47.404;18.836;2023-05-07T06:01:24;19.00;18.00;9.00